createdAt,value
2022-08-19T00:02:17.731Z,18.00
2022-08-19T00:04:47.956Z,18.00
2022-08-19T00:07:17.819Z,18.00
2022-08-19T00:09:45.767Z,18.00
2022-08-19T00:12:13.690Z,18.00
2022-08-19T00:14:41.944Z,18.00
2022-08-19T00:17:10.470Z,18.00
2022-08-19T00:19:39.961Z,18.00
2022-08-19T00:22:09.566Z,17.90
2022-08-19T00:24:38.927Z,17.90
2022-08-19T00:27:26.511Z,17.00
2022-08-19T00:29:54.898Z,17.90
2022-08-19T00:32:23.895Z,17.70
2022-08-19T00:34:54.395Z,17.60
2022-08-19T00:37:24.098Z,17.70
2022-08-19T00:39:52.333Z,17.60
2022-08-19T00:42:22.011Z,17.40
2022-08-19T00:44:50.224Z,17.10
2022-08-19T00:47:18.038Z,16.90
2022-08-19T00:49:54.483Z,16.80
2022-08-19T00:52:32.245Z,16.60
2022-08-19T00:55:01.015Z,16.60
2022-08-19T00:57:33.564Z,16.50
2022-08-19T01:00:03.561Z,13.60
2022-08-19T01:02:33.835Z,16.30
2022-08-19T01:05:05.610Z,16.20
2022-08-19T01:07:38.248Z,16.20
2022-08-19T01:10:17.302Z,16.00
2022-08-19T01:12:46.192Z,16.00
2022-08-19T01:15:19.796Z,16.00
2022-08-19T01:17:48.705Z,15.90
2022-08-19T01:20:21.692Z,15.90
2022-08-19T01:22:55.703Z,15.90
2022-08-19T01:25:51.947Z,15.80
2022-08-19T01:28:34.262Z,15.80
2022-08-19T01:31:27.409Z,15.70
2022-08-19T01:33:56.431Z,15.70
2022-08-19T01:36:48.303Z,15.60
2022-08-19T01:39:23.317Z,15.60
2022-08-19T01:41:53.375Z,15.50
2022-08-19T01:44:24.918Z,15.50
2022-08-19T01:46:52.990Z,15.50
2022-08-19T01:49:23.274Z,15.40
2022-08-19T01:51:51.901Z,15.40
2022-08-19T01:54:23.174Z,15.30
2022-08-19T01:57:02.790Z,15.20
2022-08-19T01:59:31.527Z,15.20
2022-08-19T02:01:59.141Z,15.20
2022-08-19T02:04:27.269Z,15.20
2022-08-19T02:09:22.994Z,15.20
2022-08-19T02:11:50.673Z,15.20
2022-08-19T02:14:18.637Z,15.20
2022-08-19T02:16:46.164Z,15.20
2022-08-19T02:19:14.144Z,15.20
2022-08-19T02:21:41.924Z,15.20
2022-08-19T02:24:09.685Z,15.20
2022-08-19T02:26:37.530Z,15.10
2022-08-19T02:29:05.343Z,15.20
2022-08-19T02:31:33.323Z,15.20
2022-08-19T02:34:00.983Z,15.20
2022-08-19T02:36:29.111Z,15.20
2022-08-19T02:38:58.019Z,15.20
2022-08-19T02:41:33.737Z,15.20
2022-08-19T02:44:28.942Z,15.20
2022-08-19T02:46:51.849Z,15.20
2022-08-19T02:49:20.785Z,15.20
2022-08-19T02:51:48.704Z,15.20
2022-08-19T02:54:16.889Z,15.20
2022-08-19T02:56:46.371Z,15.10
2022-08-19T02:59:14.129Z,15.10
2022-08-19T03:01:43.123Z,15.00
2022-08-19T03:04:14.225Z,14.90
2022-08-19T03:06:44.227Z,14.70
2022-08-19T03:09:12.641Z,14.70
2022-08-19T03:11:41.160Z,14.60
2022-08-19T03:14:10.038Z,14.40
2022-08-19T03:16:48.364Z,14.30
2022-08-19T03:19:18.963Z,14.30
2022-08-19T03:21:47.156Z,14.20
2022-08-19T03:24:16.423Z,14.00
2022-08-19T03:26:47.491Z,14.10
2022-08-19T03:29:16.295Z,13.90
2022-08-19T03:32:03.779Z,13.60
2022-08-19T03:34:35.225Z,13.50
2022-08-19T03:37:07.373Z,13.30
2022-08-19T03:39:36.926Z,13.30
2022-08-19T03:42:45.452Z,13.10
2022-08-19T03:44:53.587Z,13.10
2022-08-19T03:49:49.041Z,12.90
2022-08-19T03:52:16.625Z,12.80
2022-08-19T03:54:44.284Z,12.60
2022-08-19T03:57:12.175Z,12.50
2022-08-19T03:59:40.324Z,12.40
2022-08-19T04:02:10.224Z,12.50
2022-08-19T04:04:44.356Z,9.00
2022-08-19T04:07:16.772Z,12.30
2022-08-19T04:09:45.094Z,12.40
2022-08-19T04:12:12.894Z,12.30
2022-08-19T04:14:40.781Z,12.30
2022-08-19T04:17:08.635Z,12.30
2022-08-19T04:19:37.289Z,12.30
2022-08-19T04:22:05.607Z,12.30
2022-08-19T04:24:34.423Z,12.30
2022-08-19T04:27:03.719Z,12.20
2022-08-19T04:29:31.474Z,12.20
2022-08-19T04:32:00.467Z,12.30
2022-08-19T04:35:03.262Z,12.30
2022-08-19T04:37:29.457Z,12.30
2022-08-19T04:40:25.536Z,12.30
2022-08-19T04:42:54.511Z,12.40
2022-08-19T04:45:23.081Z,12.30
2022-08-19T04:47:58.427Z,12.30
2022-08-19T04:50:41.546Z,12.30
2022-08-19T04:53:09.848Z,12.20
2022-08-19T04:55:41.302Z,12.30
2022-08-19T04:58:09.080Z,12.20
2022-08-19T05:00:40.447Z,12.20
2022-08-19T05:03:08.260Z,12.00
2022-08-19T05:05:45.008Z,12.00
2022-08-19T05:08:15.174Z,11.80
2022-08-19T05:10:43.212Z,11.70
2022-08-19T05:13:11.889Z,11.70
2022-08-19T05:15:39.669Z,11.60
2022-08-19T05:21:12.374Z,11.40
2022-08-19T05:23:40.518Z,11.30
2022-08-19T05:26:10.367Z,11.20
2022-08-19T05:28:38.034Z,11.10
2022-08-19T05:31:05.711Z,11.10
2022-08-19T05:33:33.458Z,11.10
2022-08-19T05:36:03.031Z,11.20
2022-08-19T05:38:31.097Z,11.20
2022-08-19T05:40:58.764Z,11.20
2022-08-19T05:43:26.578Z,11.20
2022-08-19T05:45:54.221Z,11.10
2022-08-19T05:48:21.903Z,11.10
2022-08-19T05:50:51.264Z,11.20
2022-08-19T05:53:19.377Z,11.20
2022-08-19T05:55:47.209Z,11.30
2022-08-19T05:58:14.924Z,11.40
2022-08-19T06:00:45.240Z,11.50
2022-08-19T06:03:13.365Z,11.50
2022-08-19T06:05:46.206Z,11.60
2022-08-19T06:08:20.196Z,11.60
2022-08-19T06:10:47.945Z,11.70
2022-08-19T06:13:15.729Z,11.90
2022-08-19T06:15:45.091Z,12.00
2022-08-19T06:20:55.393Z,12.40
2022-08-19T06:23:24.330Z,12.50
2022-08-19T06:25:52.205Z,12.70
2022-08-19T06:30:48.315Z,13.00
2022-08-19T06:33:15.917Z,13.10
2022-08-19T06:38:16.567Z,13.30
2022-08-19T06:43:18.556Z,13.50
2022-08-19T06:45:47.816Z,13.60
2022-08-19T06:48:15.703Z,13.60
2022-08-19T06:50:46.013Z,13.70
2022-08-19T06:53:13.870Z,13.80
2022-08-19T06:55:42.537Z,13.80
2022-08-19T07:00:38.449Z,13.90
2022-08-19T07:03:08.631Z,14.00
2022-08-19T07:05:45.988Z,14.00
2022-08-19T07:08:14.911Z,14.10
2022-08-19T07:10:46.728Z,14.10
2022-08-19T07:13:14.500Z,14.20
2022-08-19T07:15:42.244Z,14.30
2022-08-19T07:18:11.725Z,14.30
2022-08-19T07:20:41.906Z,14.30
2022-08-19T07:23:15.849Z,14.50
2022-08-19T07:25:44.953Z,14.50
2022-08-19T07:28:24.230Z,14.60
2022-08-19T07:30:53.546Z,14.60
2022-08-19T07:33:21.711Z,14.70
2022-08-19T07:35:50.935Z,14.80
2022-08-19T07:38:18.759Z,15.00
2022-08-19T07:40:47.406Z,15.00
2022-08-19T07:43:17.963Z,15.10
2022-08-19T07:45:48.151Z,15.20
2022-08-19T07:48:16.282Z,15.30
2022-08-19T07:50:44.338Z,15.30
2022-08-19T07:53:13.408Z,15.40
2022-08-19T07:55:43.750Z,15.50
2022-08-19T07:58:18.305Z,15.50
2022-08-19T08:00:48.054Z,15.70
2022-08-19T08:03:18.031Z,15.70
2022-08-19T08:06:04.652Z,15.80
2022-08-19T08:08:32.571Z,15.90
2022-08-19T08:11:01.235Z,15.90
2022-08-19T08:13:29.353Z,16.10
2022-08-19T08:15:58.241Z,16.00
2022-08-19T08:18:27.869Z,16.10
2022-08-19T08:20:59.498Z,16.40
2022-08-19T08:23:27.462Z,16.40
2022-08-19T08:25:57.887Z,16.40
2022-08-19T08:28:29.575Z,16.40
2022-08-19T08:30:58.491Z,16.40
2022-08-19T08:33:34.554Z,16.50
2022-08-19T08:36:07.431Z,16.50
2022-08-19T08:38:43.010Z,16.60
2022-08-19T08:41:20.902Z,16.70
2022-08-19T08:43:50.089Z,16.80
2022-08-19T08:46:31.645Z,16.90
2022-08-19T08:49:00.026Z,17.10
2022-08-19T08:51:35.377Z,17.30
2022-08-19T08:54:12.942Z,17.30
2022-08-19T08:56:44.202Z,17.60
2022-08-19T08:59:23.179Z,17.70
2022-08-19T09:01:51.122Z,17.80
2022-08-19T09:04:19.070Z,17.90
2022-08-19T09:07:18.569Z,17.80
2022-08-19T09:10:19.704Z,17.60
2022-08-19T09:13:01.513Z,17.50
2022-08-19T09:15:58.466Z,17.40
2022-08-19T09:18:26.260Z,17.40
2022-08-19T09:20:58.079Z,17.70
2022-08-19T09:23:27.101Z,17.70
2022-08-19T09:25:55.099Z,17.70
2022-08-19T09:28:27.058Z,19.30
2022-08-19T09:30:55.310Z,17.80
2022-08-19T09:33:23.497Z,17.80
2022-08-19T09:35:53.512Z,15.40
2022-08-19T09:38:24.653Z,17.60
2022-08-19T09:42:36.581Z,17.50
2022-08-19T09:45:10.410Z,17.60
2022-08-19T09:47:40.623Z,17.80
2022-08-19T09:50:11.447Z,15.20
2022-08-19T09:52:53.932Z,17.70
2022-08-19T09:55:31.661Z,17.80
2022-08-19T09:58:02.469Z,17.80
2022-08-19T10:00:32.070Z,17.80
2022-08-19T10:03:00.170Z,18.10
2022-08-19T10:05:48.714Z,18.30
2022-08-19T10:08:26.757Z,18.40
2022-08-19T10:10:56.022Z,18.70
2022-08-19T10:13:27.214Z,18.70
2022-08-19T10:15:58.220Z,18.80
2022-08-19T10:18:26.509Z,18.80
2022-08-19T10:21:12.297Z,18.70
2022-08-19T10:23:46.237Z,18.70
2022-08-19T10:26:21.227Z,18.60
2022-08-19T10:28:50.407Z,18.60
2022-08-19T10:31:22.506Z,18.60
2022-08-19T10:34:17.545Z,18.60
2022-08-19T10:36:56.508Z,18.70
2022-08-19T10:39:41.186Z,18.70
2022-08-19T10:42:11.775Z,18.80
2022-08-19T10:44:40.491Z,18.80
2022-08-19T10:47:17.677Z,19.40
2022-08-19T10:50:12.885Z,19.40
2022-08-19T10:52:49.789Z,19.30
2022-08-19T10:55:41.195Z,19.30
2022-08-19T10:58:23.520Z,19.40
2022-08-19T11:00:57.181Z,19.50
2022-08-19T11:03:26.356Z,19.70
2022-08-19T11:06:06.675Z,19.80
2022-08-19T11:08:36.077Z,19.90
2022-08-19T11:11:04.625Z,19.90
2022-08-19T11:13:35.122Z,19.80
2022-08-19T11:16:08.283Z,19.90
2022-08-19T11:18:38.910Z,19.90
2022-08-19T11:21:18.275Z,19.80
2022-08-19T11:23:48.055Z,19.80
2022-08-19T11:26:17.108Z,19.90
2022-08-19T11:28:45.038Z,20.00
2022-08-19T11:31:17.570Z,20.10
2022-08-19T11:33:47.658Z,20.00
2022-08-19T11:36:17.314Z,20.20
2022-08-19T11:38:46.306Z,20.10
2022-08-19T11:41:14.171Z,20.40
2022-08-19T11:43:41.950Z,20.60
2022-08-19T11:46:13.114Z,20.60
2022-08-19T11:48:41.775Z,20.50
2022-08-19T11:51:12.613Z,20.40
2022-08-19T11:53:41.288Z,20.40
2022-08-19T11:56:10.192Z,20.60
2022-08-19T11:58:38.687Z,20.60
2022-08-19T12:01:08.863Z,21.00
2022-08-19T12:03:37.031Z,21.00
2022-08-19T12:06:12.965Z,20.90
2022-08-19T12:08:43.561Z,20.90
2022-08-19T12:11:12.891Z,20.80
2022-08-19T12:13:41.282Z,20.80
2022-08-19T12:16:13.372Z,20.70
2022-08-19T12:18:47.702Z,20.90
2022-08-19T12:21:17.890Z,21.00
2022-08-19T12:23:46.637Z,20.90
2022-08-19T12:26:14.771Z,20.80
2022-08-19T12:28:43.131Z,20.60
2022-08-19T12:31:15.149Z,20.50
2022-08-19T12:33:44.471Z,20.50
2022-08-19T12:36:14.822Z,20.50
2022-08-19T12:38:43.026Z,20.50
2022-08-19T12:41:14.284Z,20.40
2022-08-19T12:43:42.966Z,20.30
2022-08-19T12:46:11.574Z,20.20
2022-08-19T12:48:43.061Z,20.10
2022-08-19T12:51:14.403Z,20.20
2022-08-19T12:53:42.894Z,20.30
2022-08-19T12:56:12.829Z,20.30
2022-08-19T12:58:48.818Z,20.30
2022-08-19T13:01:22.005Z,20.30
2022-08-19T13:03:54.606Z,20.30
2022-08-19T13:06:22.554Z,20.40
2022-08-19T13:08:50.396Z,20.40
2022-08-19T13:11:20.838Z,20.50
2022-08-19T13:13:51.437Z,20.90
2022-08-19T13:16:21.151Z,21.50
2022-08-19T13:18:49.480Z,22.00
2022-08-19T13:21:17.330Z,22.10
2022-08-19T13:23:49.914Z,22.70
2022-08-19T13:26:18.729Z,23.20
2022-08-19T13:29:05.546Z,23.40
2022-08-19T13:31:55.027Z,23.10
2022-08-19T13:34:35.025Z,22.70
2022-08-19T13:37:04.925Z,22.60
2022-08-19T13:39:34.005Z,22.80
2022-08-19T13:42:02.581Z,23.00
2022-08-19T13:44:30.469Z,23.10
2022-08-19T13:47:11.634Z,23.10
2022-08-19T13:49:39.450Z,22.80
2022-08-19T13:52:07.170Z,22.80
2022-08-19T13:54:34.834Z,22.90
2022-08-19T13:57:02.513Z,23.30
2022-08-19T13:59:30.300Z,23.70
2022-08-19T14:02:01.879Z,23.70
2022-08-19T14:04:29.782Z,23.40
2022-08-19T14:06:57.486Z,23.00
2022-08-19T14:09:25.249Z,22.70
2022-08-19T14:11:53.869Z,22.30
2022-08-19T14:14:21.397Z,22.00
2022-08-19T14:16:49.463Z,21.80
2022-08-19T14:19:17.688Z,21.40
2022-08-19T14:21:45.362Z,21.40
2022-08-19T14:24:13.281Z,21.10
2022-08-19T14:26:40.910Z,21.10
2022-08-19T14:29:08.526Z,21.00
2022-08-19T14:31:35.970Z,21.40
2022-08-19T14:34:03.614Z,22.30
2022-08-19T14:36:37.398Z,23.20
2022-08-19T14:39:07.168Z,23.90
2022-08-19T14:41:36.081Z,24.10
2022-08-19T14:44:03.940Z,24.10
2022-08-19T14:46:31.661Z,24.00
2022-08-19T14:49:00.198Z,24.00
2022-08-19T14:51:28.070Z,23.80
2022-08-19T14:53:56.415Z,23.70
2022-08-19T14:56:27.836Z,23.60
2022-08-19T14:59:00.272Z,23.60
2022-08-19T15:01:28.849Z,24.10
2022-08-19T15:03:56.789Z,24.50
2022-08-19T15:06:25.764Z,25.10
2022-08-19T15:08:54.366Z,25.50
2022-08-19T15:11:25.097Z,25.20
2022-08-19T15:13:52.798Z,24.50
2022-08-19T15:16:20.619Z,24.20
2022-08-19T15:18:51.394Z,24.00
2022-08-19T15:21:25.036Z,24.00
2022-08-19T15:23:58.046Z,24.30
2022-08-19T15:26:29.230Z,24.60
2022-08-19T15:28:57.104Z,24.90
2022-08-19T15:31:27.938Z,24.80
2022-08-19T15:33:58.837Z,24.80
2022-08-19T15:36:28.155Z,24.70
2022-08-19T15:38:57.590Z,24.50
2022-08-19T15:41:29.085Z,23.70
2022-08-19T15:44:10.648Z,24.50
2022-08-19T15:46:41.956Z,24.00
2022-08-19T15:49:12.274Z,23.60
2022-08-19T15:51:43.085Z,22.70
2022-08-19T15:54:15.306Z,22.40
2022-08-19T15:57:12.481Z,22.30
2022-08-19T16:00:03.082Z,22.30
2022-08-19T16:02:53.714Z,23.00
2022-08-19T16:05:44.101Z,24.20
2022-08-19T16:10:36.037Z,24.20
2022-08-19T16:13:06.100Z,23.70
2022-08-19T16:15:34.396Z,23.20
2022-08-19T16:18:05.341Z,23.40
2022-08-19T16:20:33.235Z,23.40
2022-08-19T16:23:05.182Z,23.80
2022-08-19T16:25:33.066Z,24.00
2022-08-19T16:28:07.586Z,23.80
2022-08-19T16:30:40.771Z,23.50
2022-08-19T16:33:09.646Z,23.00
2022-08-19T16:35:37.829Z,22.00
2022-08-19T16:38:07.476Z,21.90
2022-08-19T16:40:35.700Z,21.40
2022-08-19T16:43:03.773Z,21.40
2022-08-19T16:45:32.149Z,21.20
2022-08-19T16:47:59.853Z,21.20
2022-08-19T16:50:46.248Z,21.20
2022-08-19T16:53:17.022Z,20.90
2022-08-19T16:55:46.921Z,20.90
2022-08-19T16:58:14.757Z,21.00
2022-08-19T17:00:42.484Z,21.40
2022-08-19T17:03:14.714Z,22.00
2022-08-19T17:05:48.358Z,24.10
2022-08-19T17:08:17.339Z,24.20
2022-08-19T17:11:07.885Z,24.80
2022-08-19T17:13:34.523Z,25.30
2022-08-19T17:16:02.578Z,25.50
2022-08-19T17:18:32.708Z,25.10
2022-08-19T17:21:01.899Z,24.20
2022-08-19T17:23:42.314Z,22.60
2022-08-19T17:26:17.068Z,22.50
2022-08-19T17:28:51.587Z,21.90
2022-08-19T17:31:23.209Z,21.30
2022-08-19T17:33:51.907Z,21.10
2022-08-19T17:36:23.589Z,21.10
2022-08-19T17:38:53.224Z,21.90
2022-08-19T17:41:21.617Z,21.90
2022-08-19T17:43:49.255Z,22.60
2022-08-19T17:46:20.574Z,22.70
2022-08-19T17:48:53.038Z,22.60
2022-08-19T17:51:33.338Z,22.50
2022-08-19T17:54:01.289Z,22.60
2022-08-19T17:56:28.954Z,22.90
2022-08-19T17:59:01.600Z,23.20
2022-08-19T18:01:43.965Z,23.20
2022-08-19T18:04:19.871Z,22.70
2022-08-19T18:09:27.274Z,22.20
2022-08-19T18:11:57.271Z,22.50
2022-08-19T18:14:33.245Z,22.80
2022-08-19T18:17:09.297Z,22.80
2022-08-19T18:19:43.241Z,22.40
2022-08-19T18:22:20.564Z,21.20
2022-08-19T18:24:48.579Z,21.10
2022-08-19T18:27:16.462Z,20.60
2022-08-19T18:29:45.100Z,20.20
2022-08-19T18:32:13.030Z,19.60
2022-08-19T18:34:42.105Z,19.60
2022-08-19T18:37:10.522Z,19.40
2022-08-19T18:39:57.135Z,19.30
2022-08-19T18:42:43.534Z,19.10
2022-08-19T18:45:30.289Z,18.90
2022-08-19T18:48:24.220Z,18.70
2022-08-19T18:50:57.503Z,18.60
2022-08-19T18:53:26.946Z,18.50
2022-08-19T18:55:55.501Z,18.40
2022-08-19T18:58:26.634Z,18.30
2022-08-19T19:00:57.150Z,18.30
2022-08-19T19:03:28.107Z,18.10
2022-08-19T19:05:55.827Z,18.10
2022-08-19T19:08:27.233Z,18.00
2022-08-19T19:10:56.700Z,17.90
2022-08-19T19:13:24.491Z,17.80
2022-08-19T19:15:52.340Z,17.70
2022-08-19T19:18:20.092Z,17.70
2022-08-19T19:20:48.134Z,17.60
2022-08-19T19:23:15.754Z,17.50
2022-08-19T19:25:50.916Z,17.50
2022-08-19T19:28:24.002Z,17.40
2022-08-19T19:30:54.101Z,17.20
2022-08-19T19:33:21.938Z,17.10
2022-08-19T19:35:49.606Z,17.20
2022-08-19T19:38:17.305Z,17.00
2022-08-19T19:43:13.409Z,16.90
2022-08-19T19:45:41.359Z,16.90
2022-08-19T19:48:10.051Z,16.90
2022-08-19T19:50:37.685Z,16.80
2022-08-19T19:53:06.375Z,16.70
2022-08-19T19:55:34.048Z,16.60
2022-08-19T19:58:01.973Z,16.70
2022-08-19T20:00:30.022Z,16.60
2022-08-19T20:02:58.160Z,16.50
2022-08-19T20:05:26.023Z,17.40
2022-08-19T20:08:13.835Z,16.40
2022-08-19T20:10:43.271Z,16.30
2022-08-19T20:13:13.614Z,16.00
2022-08-19T20:15:43.701Z,16.00
2022-08-19T20:18:14.608Z,15.80
2022-08-19T20:20:43.998Z,15.80
2022-08-19T20:23:12.015Z,15.70
2022-08-19T20:25:39.622Z,15.70
2022-08-19T20:28:08.934Z,15.70
2022-08-19T20:30:39.080Z,15.70
2022-08-19T20:33:14.715Z,15.70
2022-08-19T20:35:44.320Z,14.20
2022-08-19T20:40:41.239Z,15.70
2022-08-19T20:43:11.406Z,15.60
2022-08-19T20:45:41.971Z,15.60
2022-08-19T20:48:12.576Z,15.50
2022-08-19T20:50:40.350Z,15.50
2022-08-19T20:53:14.425Z,15.40
2022-08-19T20:55:49.144Z,15.40
2022-08-19T20:58:19.623Z,15.50
2022-08-19T21:00:48.266Z,15.50
2022-08-19T21:03:22.003Z,15.50
2022-08-19T21:05:50.156Z,15.50
2022-08-19T21:08:20.818Z,15.50
2022-08-19T21:10:50.233Z,15.60
2022-08-19T21:13:20.100Z,15.50
2022-08-19T21:15:48.234Z,15.50
2022-08-19T21:18:18.439Z,15.50
2022-08-19T21:20:47.358Z,15.40
2022-08-19T21:23:21.741Z,15.40
2022-08-19T21:25:54.517Z,15.40
2022-08-19T21:28:29.886Z,15.40
2022-08-19T21:31:06.321Z,15.30
2022-08-19T21:33:34.543Z,15.20
2022-08-19T21:36:03.088Z,15.20
2022-08-19T21:38:31.371Z,15.20
2022-08-19T21:40:59.506Z,17.10
2022-08-19T21:43:35.167Z,15.10
2022-08-19T21:46:02.876Z,15.10
2022-08-19T21:48:30.674Z,15.00
2022-08-19T21:53:31.351Z,15.00
2022-08-19T21:56:00.977Z,15.00
2022-08-19T21:58:30.085Z,14.90
2022-08-19T22:01:06.065Z,14.90
2022-08-19T22:03:35.995Z,14.90
2022-08-19T22:06:03.889Z,14.90
2022-08-19T22:08:33.865Z,14.90
2022-08-19T22:11:03.716Z,13.40
2022-08-19T22:13:40.056Z,14.80
2022-08-19T22:16:09.629Z,14.70
2022-08-19T22:18:37.337Z,14.80
2022-08-19T22:21:11.304Z,14.70
2022-08-19T22:23:44.329Z,14.70
2022-08-19T22:26:14.065Z,14.70
2022-08-19T22:28:42.699Z,14.70
2022-08-19T22:31:11.447Z,14.70
2022-08-19T22:33:40.435Z,14.70
2022-08-19T22:36:08.358Z,14.60
2022-08-19T22:38:37.445Z,14.70
2022-08-19T22:41:07.662Z,14.60
2022-08-19T22:43:36.925Z,14.60
2022-08-19T22:48:46.218Z,14.60
2022-08-19T22:51:33.338Z,14.50
2022-08-19T22:54:01.852Z,14.60
2022-08-19T22:56:30.619Z,14.50
2022-08-19T22:58:58.451Z,15.60
2022-08-19T23:01:30.215Z,14.50
2022-08-19T23:03:59.808Z,14.40
2022-08-19T23:06:33.149Z,14.40
2022-08-19T23:09:04.755Z,14.40
2022-08-19T23:11:41.695Z,14.30
2022-08-19T23:14:12.573Z,14.30
2022-08-19T23:16:41.858Z,11.40
2022-08-19T23:19:10.458Z,14.30
2022-08-19T23:21:42.551Z,14.20
2022-08-19T23:24:11.409Z,14.30
2022-08-19T23:26:59.480Z,14.20
2022-08-19T23:29:45.687Z,12.70
2022-08-19T23:32:16.196Z,14.20
2022-08-19T23:34:44.227Z,14.20
2022-08-19T23:37:12.217Z,14.20
2022-08-19T23:39:39.830Z,14.20
2022-08-19T23:42:11.491Z,14.20
2022-08-19T23:44:51.608Z,14.10
2022-08-19T23:47:20.935Z,14.10
2022-08-19T23:52:16.897Z,14.00
2022-08-19T23:54:44.621Z,14.10
2022-08-19T23:57:13.470Z,14.00
2022-08-19T23:59:45.574Z,14.00
